Sanjo, Japan
Current Conditions -  °F | °C
As of 9:00 AM on Friday 19 Dec 2014 (Local Time) from RJSN Reporting Station
Rain Showers Rain Showers  
Wind Chill: 36°   Ceiling: 5000
Heat Index: 41°   Visibility: 6mi
Dew Point: 28°   Wind: 8mph
Humidity: 61%   Direction: 210°SSW
Pressure: 30.45"   Gusts: NA
Location:  37.62°N, 138.96°E
Report Text: RJSN 190000Z 21007KT 150V290 9999 VCSH FEW030 BKN050 05/M02 Q1031
Loading
Personal Weather Stations






























Interactive Weather Map New forecast layout! Learn more

10-Day Weather Forecast

Advertisements
Track Severe Weather on mobile